createdAt,value
2022-08-07T00:02:39.923Z,99595.97
2022-08-07T00:05:30.438Z,99535.47
2022-08-07T00:08:16.886Z,99602.88
2022-08-07T00:11:06.411Z,99589.06
2022-08-07T00:13:52.863Z,99602.91
2022-08-07T00:16:41.544Z,99597.75
2022-08-07T00:19:59.954Z,99618.53
2022-08-07T00:22:35.785Z,99581.34
2022-08-07T00:25:23.455Z,99602.97
2022-08-07T00:28:13.107Z,99590.88
2022-08-07T00:31:12.680Z,99609.03
2022-08-07T00:34:03.283Z,99596.91
2022-08-07T00:36:50.006Z,99594.31
2022-08-07T00:39:36.885Z,99578.75
2022-08-07T00:42:33.554Z,99609.03
2022-08-07T00:45:23.054Z,99570.13
2022-08-07T00:48:12.320Z,99588.28
2022-08-07T00:51:00.997Z,99596.94
2022-08-07T00:53:50.743Z,99580.47
2022-08-07T00:56:41.977Z,99577.88
2022-08-07T00:59:35.479Z,99603.00
2022-08-07T01:02:28.288Z,99575.28
2022-08-07T01:05:18.760Z,99582.22
2022-08-07T01:08:06.241Z,99611.63
2022-08-07T01:10:56.545Z,99575.25
2022-08-07T01:13:46.746Z,99568.34
2022-08-07T01:16:43.403Z,99576.13
2022-08-07T01:19:38.329Z,99598.63
2022-08-07T01:22:29.384Z,99551.91
2022-08-07T01:25:54.058Z,99570.06
2022-08-07T01:28:24.196Z,99566.59
2022-08-07T01:31:15.439Z,99582.16
2022-08-07T01:34:05.879Z,99609.00
2022-08-07T01:36:57.859Z,99567.44
2022-08-07T01:39:48.202Z,99608.09
2022-08-07T01:42:58.653Z,99589.91
2022-08-07T01:45:49.937Z,99560.47
2022-08-07T01:48:47.596Z,99597.69
2022-08-07T01:52:03.380Z,99557.00
2022-08-07T01:54:53.938Z,99602.88
2022-08-07T01:58:06.847Z,99582.09
2022-08-07T02:01:09.430Z,99569.09
2022-08-07T02:04:13.843Z,99589.91
2022-08-07T02:07:08.284Z,99574.28
2022-08-07T02:09:58.689Z,99593.31
2022-08-07T02:12:50.063Z,99575.13
2022-08-07T02:15:43.323Z,99588.09
2022-08-07T02:18:33.192Z,99559.53
2022-08-07T02:21:23.739Z,99557.81
2022-08-07T02:24:13.406Z,99562.16
2022-08-07T02:27:05.508Z,99525.81
2022-08-07T02:29:55.008Z,99567.34
2022-08-07T02:33:00.512Z,99529.25
2022-08-07T02:36:29.619Z,99539.59
2022-08-07T02:39:01.072Z,99556.94
2022-08-07T02:41:54.227Z,99548.28
2022-08-07T02:44:47.576Z,99569.03
2022-08-07T02:47:48.908Z,99542.19
2022-08-07T02:50:41.814Z,99560.31
2022-08-07T02:53:38.589Z,99565.53
2022-08-07T02:56:31.574Z,99560.28
2022-08-07T02:59:24.124Z,99553.31
2022-08-07T03:02:16.845Z,99533.44
2022-08-07T03:05:06.647Z,99549.00
2022-08-07T03:08:08.212Z,99562.84
2022-08-07T03:10:59.592Z,99564.59
2022-08-07T03:13:57.595Z,99535.13
2022-08-07T03:16:50.192Z,99535.97
2022-08-07T03:19:40.667Z,99545.50
2022-08-07T03:22:30.586Z,99545.47
2022-08-07T03:25:21.173Z,99557.53
2022-08-07T03:28:37.455Z,99576.56
2022-08-07T03:31:24.576Z,99541.06
2022-08-07T03:34:18.272Z,99548.00
2022-08-07T03:37:12.601Z,99546.28
2022-08-07T03:40:15.829Z,99538.41
2022-08-07T03:43:04.782Z,99544.50
2022-08-07T03:46:03.788Z,99580.03
2022-08-07T03:49:02.617Z,99553.16
2022-08-07T03:51:56.072Z,99577.41
2022-08-07T03:54:54.088Z,99563.50
2022-08-07T03:58:33.676Z,99529.75
2022-08-07T04:01:00.268Z,99486.41
2022-08-07T04:03:55.097Z,99561.78
2022-08-07T04:06:44.249Z,99536.69
2022-08-07T04:09:44.860Z,99567.91
2022-08-07T04:12:32.382Z,99550.53
2022-08-07T04:15:23.967Z,99548.72
2022-08-07T04:18:57.866Z,99547.13
2022-08-07T04:21:22.960Z,99557.47
2022-08-07T04:24:33.892Z,99563.47
2022-08-07T04:27:25.651Z,99577.34
2022-08-07T04:30:36.069Z,99591.22
2022-08-07T04:33:37.756Z,99566.97
2022-08-07T04:36:26.199Z,99586.06
2022-08-07T04:39:13.615Z,99509.91
2022-08-07T04:42:05.211Z,99561.06
2022-08-07T04:44:54.622Z,99573.22
2022-08-07T04:48:11.044Z,99610.47
2022-08-07T04:51:09.756Z,99578.50
2022-08-07T04:54:15.515Z,99600.19
2022-08-07T04:58:15.551Z,99600.25
2022-08-07T05:00:30.068Z,99606.38
2022-08-07T05:03:49.914Z,99614.22
2022-08-07T05:06:51.748Z,99583.09
2022-08-07T05:10:04.839Z,99607.94
2022-08-07T05:13:09.841Z,99611.22
2022-08-07T05:16:14.367Z,99561.38
2022-08-07T05:19:07.615Z,99596.56
2022-08-07T05:22:01.898Z,99606.50
2022-08-07T05:24:59.456Z,99596.81
2022-08-07T05:28:16.167Z,99590.75
2022-08-07T05:30:56.850Z,99583.03
2022-08-07T05:34:01.347Z,99609.31
2022-08-07T05:36:56.066Z,99587.59
2022-08-07T05:40:05.690Z,99594.50
2022-08-07T05:42:58.671Z,99618.25
2022-08-07T05:45:48.402Z,99601.88
2022-08-07T05:48:58.059Z,99595.44
2022-08-07T05:51:47.197Z,99623.19
2022-08-07T05:54:53.305Z,99610.56
2022-08-07T05:57:44.926Z,99614.75
2022-08-07T06:00:35.054Z,99616.91
2022-08-07T06:03:25.044Z,99618.81
2022-08-07T06:06:34.242Z,99604.59
2022-08-07T06:10:03.162Z,99591.00
2022-08-07T06:12:33.182Z,99577.34
2022-08-07T06:15:22.047Z,99616.22
2022-08-07T06:18:28.027Z,99624.88
2022-08-07T06:22:16.274Z,99625.53
2022-08-07T06:24:46.225Z,99598.63
2022-08-07T06:28:00.731Z,99599.34
2022-08-07T06:30:42.628Z,99635.22
2022-08-07T06:33:36.658Z,99603.09
2022-08-07T06:36:34.861Z,99618.38
2022-08-07T06:40:13.449Z,99570.69
2022-08-07T06:42:37.492Z,99627.94
2022-08-07T06:45:44.283Z,99596.50
2022-08-07T06:48:31.687Z,99588.88
2022-08-07T06:51:31.169Z,99622.75
2022-08-07T06:55:34.199Z,99584.56
2022-08-07T06:57:43.653Z,99594.28
2022-08-07T07:00:42.345Z,99604.50
2022-08-07T07:03:48.988Z,99591.84
2022-08-07T07:06:39.426Z,99592.91
2022-08-07T07:09:50.850Z,99589.63
2022-08-07T07:12:48.672Z,99614.56
2022-08-07T07:15:40.399Z,99591.09
2022-08-07T07:18:48.306Z,99618.34
2022-08-07T07:22:04.633Z,99584.56
2022-08-07T07:24:56.970Z,99579.34
2022-08-07T07:28:07.569Z,99616.09
2022-08-07T07:31:44.605Z,99605.94
2022-08-07T07:34:36.840Z,99589.28
2022-08-07T07:37:49.542Z,99585.47
2022-08-07T07:40:38.301Z,99587.84
2022-08-07T07:43:47.492Z,99607.25
2022-08-07T07:46:54.205Z,99592.84
2022-08-07T07:50:36.312Z,99579.38
2022-08-07T07:52:53.591Z,99599.72
2022-08-07T07:55:45.810Z,99602.25
2022-08-07T07:58:44.462Z,99579.50
2022-08-07T08:02:02.047Z,99589.50
2022-08-07T08:04:42.031Z,99559.84
2022-08-07T08:07:35.806Z,99602.09
2022-08-07T08:10:37.584Z,99582.16
2022-08-07T08:13:36.700Z,99559.66
2022-08-07T08:16:40.111Z,99587.72
2022-08-07T08:20:17.859Z,99566.22
2022-08-07T08:23:01.917Z,99580.41
2022-08-07T08:26:09.266Z,99557.75
2022-08-07T08:28:58.340Z,99560.53
2022-08-07T08:31:58.904Z,99561.72
2022-08-07T08:34:57.289Z,99575.75
2022-08-07T08:38:01.129Z,99541.66
2022-08-07T08:41:31.504Z,99572.31
2022-08-07T08:44:46.989Z,99576.88
2022-08-07T08:47:52.247Z,99562.78
2022-08-07T08:50:47.609Z,99537.50
2022-08-07T08:53:47.332Z,99549.41
2022-08-07T08:56:47.702Z,99554.03
2022-08-07T08:59:50.941Z,99562.13
2022-08-07T09:02:58.678Z,99552.75
2022-08-07T09:05:57.725Z,99551.06
2022-08-07T09:09:03.172Z,99561.03
2022-08-07T09:12:31.379Z,99538.63
2022-08-07T09:16:23.679Z,99546.66
2022-08-07T09:19:00.435Z,99541.06
2022-08-07T09:22:37.159Z,99542.22
2022-08-07T09:25:58.966Z,99518.19
2022-08-07T09:30:05.298Z,99502.53
2022-08-07T09:32:17.086Z,99537.69
2022-08-07T09:36:02.952Z,99536.53
2022-08-07T09:38:58.541Z,99530.00
2022-08-07T09:42:31.604Z,99535.84
2022-08-07T09:47:24.422Z,99522.25
2022-08-07T09:50:00.802Z,99510.81
2022-08-07T09:52:33.538Z,99531.66
2022-08-07T09:56:02.649Z,99525.25
2022-08-07T09:58:53.196Z,99507.25
2022-08-07T10:02:12.259Z,99487.22
2022-08-07T10:05:12.370Z,99492.91
2022-08-07T10:08:20.068Z,99472.06
2022-08-07T10:11:59.686Z,99507.94
2022-08-07T10:15:06.348Z,99503.22
2022-08-07T10:18:21.048Z,99493.34
2022-08-07T10:22:13.990Z,99495.69
2022-08-07T10:24:47.337Z,99485.72
2022-08-07T10:28:10.623Z,99478.47
2022-08-07T10:31:31.530Z,99473.03
2022-08-07T10:34:42.805Z,99468.75
2022-08-07T10:38:20.861Z,99465.56
2022-08-07T10:41:11.934Z,99450.91
2022-08-07T10:44:38.451Z,99459.22
2022-08-07T10:47:52.583Z,99442.81
2022-08-07T10:50:49.821Z,99429.00
2022-08-07T10:53:47.478Z,99441.13
2022-08-07T10:56:54.290Z,99440.97
2022-08-07T10:59:52.898Z,99448.13
2022-08-07T11:03:01.212Z,99444.63
2022-08-07T11:06:18.288Z,99441.97
2022-08-07T11:10:07.276Z,99409.69
2022-08-07T11:12:35.488Z,99436.38
2022-08-07T11:15:31.647Z,99384.56
2022-08-07T11:18:24.950Z,99413.38
2022-08-07T11:21:35.016Z,99422.50
2022-08-07T11:24:39.403Z,99405.91
2022-08-07T11:28:04.327Z,99386.09
2022-08-07T11:31:08.848Z,99389.44
2022-08-07T11:34:03.125Z,99382.00
2022-08-07T11:37:16.931Z,99381.94
2022-08-07T11:40:27.695Z,99407.38
2022-08-07T11:43:54.249Z,99377.88
2022-08-07T11:47:18.661Z,99406.66
2022-08-07T11:50:32.437Z,99382.16
2022-08-07T11:54:00.724Z,99373.06
2022-08-07T11:57:20.594Z,99361.31
2022-08-07T12:01:00.249Z,99383.28
2022-08-07T12:03:57.494Z,99389.28
2022-08-07T12:06:55.422Z,99342.31
2022-08-07T12:10:05.855Z,99354.59
2022-08-07T12:13:17.145Z,99384.97
2022-08-07T12:16:30.667Z,99383.63
2022-08-07T12:19:35.956Z,99364.47
2022-08-07T12:23:14.514Z,99366.56
2022-08-07T12:26:23.267Z,99368.06
2022-08-07T12:29:38.219Z,99357.53
2022-08-07T12:32:44.834Z,99356.66
2022-08-07T12:35:36.463Z,99355.88
2022-08-07T12:38:36.948Z,99368.22
2022-08-07T12:41:49.343Z,99353.13
2022-08-07T12:44:40.616Z,99351.47
2022-08-07T12:47:49.560Z,99327.91
2022-08-07T12:50:48.958Z,99351.78
2022-08-07T12:54:38.646Z,99360.31
2022-08-07T12:57:24.887Z,99322.44
2022-08-07T13:00:21.047Z,99333.41
2022-08-07T13:03:59.124Z,99339.53
2022-08-07T13:08:11.613Z,99317.31
2022-08-07T13:10:52.992Z,99335.56
2022-08-07T13:14:17.949Z,99323.44
2022-08-07T13:17:18.350Z,99299.41
2022-08-07T13:20:40.150Z,99327.47
2022-08-07T13:24:01.624Z,99324.81
2022-08-07T13:27:00.390Z,99305.84
2022-08-07T13:29:57.960Z,99308.41
2022-08-07T13:33:04.944Z,99331.06
2022-08-07T13:36:17.519Z,99293.09
2022-08-07T13:39:49.258Z,99311.75
2022-08-07T13:42:25.668Z,99295.69
2022-08-07T13:46:11.416Z,99276.50
2022-08-07T13:48:33.816Z,99294.19
2022-08-07T13:51:27.977Z,99274.94
2022-08-07T13:54:33.858Z,99286.09
2022-08-07T13:57:27.369Z,99255.88
2022-08-07T14:00:35.746Z,99268.03
2022-08-07T14:04:05.430Z,99264.81
2022-08-07T14:06:50.324Z,99283.13
2022-08-07T14:10:12.280Z,99272.06
2022-08-07T14:13:03.736Z,99255.03
2022-08-07T14:16:06.159Z,99239.56
2022-08-07T14:19:04.682Z,99255.69
2022-08-07T14:22:02.345Z,99249.72
2022-08-07T14:25:08.240Z,99242.28
2022-08-07T14:28:10.832Z,99256.53
2022-08-07T14:31:00.536Z,99265.91
2022-08-07T14:33:51.043Z,99238.44
2022-08-07T14:36:38.863Z,99214.06
2022-08-07T14:40:16.078Z,99272.16
2022-08-07T14:42:35.548Z,99223.22
2022-08-07T14:45:49.618Z,99240.38
2022-08-07T14:48:40.357Z,99247.50
2022-08-07T14:52:03.027Z,99233.97
2022-08-07T14:57:58.350Z,99254.75
2022-08-07T15:00:52.983Z,99216.53
2022-08-07T15:03:52.575Z,99236.44
2022-08-07T15:06:40.913Z,99232.25
2022-08-07T15:09:59.120Z,99225.00
2022-08-07T15:12:54.669Z,99226.63
2022-08-07T15:15:52.438Z,99225.13
2022-08-07T15:18:51.688Z,99218.56
2022-08-07T15:22:04.324Z,99229.22
2022-08-07T15:25:14.602Z,99228.66
2022-08-07T15:28:32.859Z,99244.06
2022-08-07T15:34:20.644Z,99205.31
2022-08-07T15:37:15.895Z,99212.72
2022-08-07T15:40:34.134Z,99210.09
2022-08-07T15:43:53.705Z,99226.63
2022-08-07T15:46:38.596Z,99193.84
2022-08-07T15:52:44.848Z,99207.91
2022-08-07T15:55:53.893Z,99198.75
2022-08-07T15:58:54.994Z,99189.50
2022-08-07T16:02:01.738Z,99193.66
2022-08-07T16:04:54.791Z,99172.84
2022-08-07T16:08:32.849Z,99180.44
2022-08-07T16:11:28.680Z,99196.81
2022-08-07T16:14:20.069Z,99217.22
2022-08-07T16:18:00.827Z,99194.38
2022-08-07T16:20:34.248Z,99197.97
2022-08-07T16:23:54.001Z,99199.28
2022-08-07T16:26:58.761Z,99206.09
2022-08-07T16:30:10.125Z,99191.34
2022-08-07T16:34:02.437Z,99190.06
2022-08-07T16:37:01.682Z,99186.94
2022-08-07T16:40:28.122Z,99190.59
2022-08-07T16:44:04.128Z,99198.38
2022-08-07T16:47:18.697Z,99196.00
2022-08-07T16:50:35.492Z,99148.59
2022-08-07T16:54:09.026Z,99200.50
2022-08-07T16:58:00.917Z,99199.66
2022-08-07T17:00:40.955Z,99200.63
2022-08-07T17:03:58.473Z,99178.81
2022-08-07T17:07:03.219Z,99157.09
2022-08-07T17:10:06.974Z,99165.41
2022-08-07T17:13:24.235Z,99197.88
2022-08-07T17:16:43.893Z,99201.78
2022-08-07T17:20:03.155Z,99195.34
2022-08-07T17:23:15.422Z,99206.38
2022-08-07T17:26:23.451Z,99184.69
2022-08-07T17:30:18.420Z,99201.94
2022-08-07T17:32:51.977Z,99216.44
2022-08-07T17:35:55.905Z,99206.56
2022-08-07T17:38:55.343Z,99175.69
2022-08-07T17:42:06.973Z,99218.25
2022-08-07T17:44:58.398Z,99195.69
2022-08-07T17:47:58.022Z,99178.16
2022-08-07T17:50:46.947Z,99223.16
2022-08-07T17:54:00.188Z,99229.88
2022-08-07T17:57:18.773Z,99189.91
2022-08-07T18:00:11.387Z,99225.81
2022-08-07T18:03:25.514Z,99206.75
2022-08-07T18:06:36.576Z,99211.88
2022-08-07T18:10:05.010Z,99236.09
2022-08-07T18:12:50.799Z,99231.53
2022-08-07T18:16:09.000Z,99237.88
2022-08-07T18:21:07.604Z,99233.09
2022-08-07T18:22:26.427Z,99229.13
2022-08-07T18:25:39.414Z,99220.38
2022-08-07T18:28:58.385Z,99253.06
2022-08-07T18:32:07.835Z,99254.56
2022-08-07T18:35:17.667Z,99262.84
2022-08-07T18:38:59.167Z,99268.94
2022-08-07T18:41:22.656Z,99272.84
2022-08-07T18:48:08.086Z,99251.38
2022-08-07T18:52:25.531Z,99279.75
2022-08-07T18:54:50.970Z,99193.72
2022-08-07T18:57:58.731Z,99304.75
2022-08-07T19:00:56.588Z,99299.06
2022-08-07T19:04:35.832Z,99304.84
2022-08-07T19:07:36.218Z,99303.50
2022-08-07T19:10:51.315Z,99288.97
2022-08-07T19:13:44.878Z,99313.44
2022-08-07T19:17:00.719Z,99314.69
2022-08-07T19:20:07.010Z,99321.13
2022-08-07T19:23:59.200Z,99320.13
2022-08-07T19:27:09.373Z,99327.41
2022-08-07T19:31:04.083Z,99285.97
2022-08-07T19:33:15.140Z,99312.25
2022-08-07T19:36:04.002Z,99323.44
2022-08-07T19:38:54.359Z,99316.47
2022-08-07T19:41:44.605Z,99341.22
2022-08-07T19:44:55.425Z,99344.41
2022-08-07T19:47:47.883Z,99350.88
2022-08-07T19:50:44.537Z,99328.97
2022-08-07T19:54:33.819Z,99344.41
2022-08-07T19:57:56.779Z,99330.97
2022-08-07T20:00:08.933Z,99354.44
2022-08-07T20:03:02.867Z,99353.28
2022-08-07T20:06:00.102Z,99344.53
2022-08-07T20:08:51.548Z,99311.69
2022-08-07T20:12:23.006Z,99304.41
2022-08-07T20:14:53.948Z,99328.38
2022-08-07T20:17:46.649Z,99344.78
2022-08-07T20:20:50.225Z,99345.13
2022-08-07T20:23:51.987Z,99315.69
2022-08-07T20:26:50.213Z,99338.34
2022-08-07T20:29:47.900Z,99342.03
2022-08-07T20:32:42.972Z,99329.31
2022-08-07T20:35:52.012Z,99347.13
2022-08-07T20:38:59.408Z,99348.91
2022-08-07T20:41:50.657Z,99340.44
2022-08-07T20:44:49.356Z,99336.56
2022-08-07T20:47:56.854Z,99328.09
2022-08-07T20:50:45.333Z,99341.44
2022-08-07T20:54:04.784Z,99338.16
2022-08-07T20:56:49.864Z,99340.47
2022-08-07T21:00:07.938Z,99291.88
2022-08-07T21:02:58.540Z,99309.28
2022-08-07T21:06:21.594Z,99311.25
2022-08-07T21:09:17.319Z,99332.19
2022-08-07T21:12:15.150Z,99312.78
2022-08-07T21:15:06.950Z,99303.31
2022-08-07T21:18:02.636Z,99311.25
2022-08-07T21:21:00.016Z,99313.22
2022-08-07T21:24:05.905Z,99323.81
2022-08-07T21:27:00.879Z,99345.59
2022-08-07T21:29:54.877Z,99325.13
2022-08-07T21:33:07.588Z,99307.53
2022-08-07T21:36:05.446Z,99348.19
2022-08-07T21:39:46.217Z,99343.16
2022-08-07T21:42:45.984Z,99330.34
2022-08-07T21:46:08.651Z,99320.19
2022-08-07T21:49:17.743Z,99316.03
2022-08-07T21:52:34.249Z,99333.44
2022-08-07T21:55:29.859Z,99332.06
2022-08-07T21:58:32.808Z,99358.09
2022-08-07T22:02:04.380Z,99357.41
2022-08-07T22:04:36.962Z,99356.59
2022-08-07T22:07:31.835Z,99339.66
2022-08-07T22:10:42.378Z,99364.78
2022-08-07T22:13:52.190Z,99365.72
2022-08-07T22:16:46.946Z,99339.13
2022-08-07T22:19:57.250Z,99342.63
2022-08-07T22:22:48.270Z,99339.25
2022-08-07T22:26:06.030Z,99366.22
2022-08-07T22:29:17.336Z,99361.19
2022-08-07T22:32:20.726Z,99357.88
2022-08-07T22:35:07.829Z,99333.16
2022-08-07T22:38:25.594Z,99363.38
2022-08-07T22:42:03.076Z,99342.75
2022-08-07T22:44:59.205Z,99357.59
2022-08-07T22:47:58.360Z,99368.78
2022-08-07T22:51:07.088Z,99364.69
2022-08-07T22:54:12.041Z,99368.16
2022-08-07T22:57:25.754Z,99373.53
2022-08-07T23:00:28.777Z,99360.66
2022-08-07T23:03:15.672Z,99377.94
2022-08-07T23:06:50.022Z,99378.16
2022-08-07T23:10:06.295Z,99374.81
2022-08-07T23:13:05.792Z,99378.47
2022-08-07T23:16:44.389Z,99349.25
2022-08-07T23:19:51.954Z,99325.97
2022-08-07T23:23:02.315Z,99375.16
2022-08-07T23:26:25.276Z,99375.19
2022-08-07T23:30:35.958Z,99380.53
2022-08-07T23:34:23.415Z,99336.66
2022-08-07T23:36:33.494Z,99384.25
2022-08-07T23:40:00.966Z,99363.63
2022-08-07T23:43:16.929Z,99381.75
2022-08-07T23:46:28.797Z,99387.75
2022-08-07T23:49:24.096Z,99390.34
2022-08-07T23:53:06.777Z,99408.44
2022-08-07T23:56:07.510Z,99365.28
